Time;durP1;ratioP1;P1;durP2;ratioP2;P2;SDS_P1;SDS_P2;PMS_P1;PMS_P2;Temp;Humidity;BMP_temperature;BMP_pressure;BME280_temperature;BME280_humidity;BME280_pressure;Samples;Min_cycle;Max_cycle;Signal;HPM_P1;HPM_P2
2021/04/22 00:00:24;;;;;;;15.35;9.78;;;;;;;8.26;71.88;100437.66;1782198;78;21183;-66
2021/04/22 00:02:52;;;;;;;13.13;9.53;;;;;;;8.21;71.92;100437.08;1771511;78;21704;-67
2021/04/22 00:05:34;;;;;;;11.97;10.23;;;;;;;8.16;72.03;100436.49;1779408;77;21650;-67
2021/04/22 00:08:04;;;;;;;13.83;9.83;;;;;;;8.07;72.18;100440.61;1778985;78;21171;-66
2021/04/22 00:10:38;;;;;;;13.38;9.80;;;;;;;7.98;72.41;100439.39;1777907;78;22141;-66
2021/04/22 00:13:06;;;;;;;13.48;9.78;;;;;;;7.92;72.65;100440.36;1780636;78;21104;-66
2021/04/22 00:15:36;;;;;;;12.20;10.25;;;;;;;7.82;72.94;100441.00;1781139;78;21120;-66
2021/04/22 00:18:06;;;;;;;15.80;9.90;;;;;;;7.76;73.19;100436.64;1762348;78;21179;-66
2021/04/22 00:20:35;;;;;;;13.15;9.90;;;;;;;7.71;73.37;100440.03;1761345;79;21226;-66
2021/04/22 00:23:06;;;;;;;12.68;10.20;;;;;;;7.71;73.54;100443.22;1773799;78;21180;-67
2021/04/22 00:25:34;;;;;;;11.78;9.63;;;;;;;7.66;73.67;100446.58;1774772;78;21352;-66
2021/04/22 00:28:03;;;;;;;12.85;10.23;;;;;;;7.63;73.81;100449.72;1768418;78;21191;-66
2021/04/22 00:30:31;;;;;;;13.83;10.35;;;;;;;7.59;73.93;100445.12;1783821;78;21668;-66
2021/04/22 00:33:07;;;;;;;12.53;10.15;;;;;;;7.57;74.11;100443.22;1774280;78;21196;-67
2021/04/22 00:35:36;;;;;;;12.85;10.13;;;;;;;7.54;74.27;100457.82;1762485;80;21226;-67
2021/04/22 00:38:06;;;;;;;14.90;10.13;;;;;;;7.51;74.46;100452.45;1758799;79;21224;-66
2021/04/22 00:40:34;;;;;;;12.93;9.55;;;;;;;7.51;74.62;100450.33;1759944;79;22273;-67
2021/04/22 00:43:10;;;;;;;11.30;9.65;;;;;;;7.50;74.73;100448.20;1774099;79;22293;-67
2021/04/22 00:45:42;;;;;;;11.63;9.63;;;;;;;7.52;74.85;100448.74;1774089;79;21159;-65
2021/04/22 00:48:11;;;;;;;14.28;9.98;;;;;;;7.55;74.97;100447.47;1761588;79;21651;-66
2021/04/22 00:50:41;;;;;;;11.60;8.98;;;;;;;7.59;75.04;100447.27;1742895;79;21171;-67
2021/04/22 00:53:10;;;;;;;12.37;10.20;;;;;;;7.62;75.05;100449.97;1760863;79;22671;-67
2021/04/22 00:55:38;;;;;;;13.38;9.95;;;;;;;7.64;75.01;100447.36;1769707;79;22151;-66
2021/04/22 00:58:06;;;;;;;10.53;8.98;;;;;;;7.66;74.96;100450.57;1747131;80;21207;-67
2021/04/22 01:00:57;;;;;;;13.13;9.43;;;;;;;7.65;74.93;100455.61;1764869;79;21202;-68
2021/04/22 01:03:26;;;;;;;12.75;8.85;;;;;;;7.64;74.91;100458.52;1774431;79;21710;-67
2021/04/22 01:06:00;;;;;;;11.05;8.65;;;;;;;7.61;74.89;100459.80;1761913;79;21700;-67
2021/04/22 01:08:30;;;;;;;10.35;8.40;;;;;;;7.60;74.88;100459.53;1757595;79;21202;-67
2021/04/22 01:10:58;;;;;;;10.63;8.80;;;;;;;7.57;74.86;100456.02;1765194;79;21176;-66
2021/04/22 01:13:28;;;;;;;12.50;9.53;;;;;;;7.58;74.84;100464.80;1772285;79;21147;-67
2021/04/22 01:15:56;;;;;;;14.80;10.53;;;;;;;7.55;74.81;100461.28;1762075;81;21694;-67
2021/04/22 01:18:24;;;;;;;13.20;10.30;;;;;;;7.52;74.85;100463.89;1763375;79;21156;-67
2021/04/22 01:20:53;;;;;;;14.03;10.70;;;;;;;7.46;74.83;100463.51;1764269;79;21382;-67
2021/04/22 01:23:21;;;;;;;12.60;10.40;;;;;;;7.41;74.93;100466.09;1763589;79;20953;-66
2021/04/22 01:25:52;;;;;;;13.62;10.03;;;;;;;7.34;75.02;100472.05;1765522;79;21120;-67
2021/04/22 01:28:23;;;;;;;13.62;10.32;;;;;;;7.29;75.09;100478.88;1769850;79;21089;-66
2021/04/22 01:30:55;;;;;;;13.83;9.73;;;;;;;7.25;75.22;100476.95;1772002;79;21148;-66
2021/04/22 01:33:25;;;;;;;14.87;10.53;;;;;;;7.21;75.32;100483.78;1768043;78;22125;-67
2021/04/22 01:35:57;;;;;;;12.68;9.68;;;;;;;7.18;75.44;100486.38;1764186;79;21112;-66
2021/04/22 01:38:25;;;;;;;13.98;10.53;;;;;;;7.15;75.51;100488.18;1744570;79;21108;-67
2021/04/22 01:40:54;;;;;;;12.65;9.60;;;;;;;7.11;75.57;100479.08;1736639;80;21092;-67
2021/04/22 01:43:24;;;;;;;12.13;9.43;;;;;;;7.07;75.62;100481.89;1770544;79;21908;-67
2021/04/22 01:45:53;;;;;;;12.55;9.73;;;;;;;7.04;75.64;100483.69;1772754;79;21167;-67
2021/04/22 01:48:21;;;;;;;11.95;9.88;;;;;;;7.01;75.68;100478.88;1761959;78;21151;-66
2021/04/22 01:50:49;;;;;;;11.35;9.28;;;;;;;6.99;75.71;100474.31;1764416;78;21167;-66
2021/04/22 01:53:17;;;;;;;11.35;8.93;;;;;;;6.95;75.77;100471.84;1750534;80;21607;-66
2021/04/22 01:55:48;;;;;;;12.25;9.53;;;;;;;6.92;75.82;100467.00;1763579;79;21183;-67
2021/04/22 01:58:21;;;;;;;13.50;9.13;;;;;;;6.90;75.85;100469.08;1766592;79;22014;-67
2021/04/22 02:00:54;;;;;;;14.85;9.68;;;;;;;6.88;75.87;100468.48;1768661;79;21231;-67
2021/04/22 02:03:22;;;;;;;11.60;9.35;;;;;;;6.88;75.95;100471.98;1768654;79;21227;-66
2021/04/22 02:05:51;;;;;;;12.33;9.80;;;;;;;6.87;75.96;100468.21;1762321;79;21124;-67
2021/04/22 02:08:18;;;;;;;13.53;9.60;;;;;;;6.87;75.99;100476.17;1762373;80;21682;-67
2021/04/22 02:10:47;;;;;;;13.58;10.28;;;;;;;6.85;76.00;100475.62;1747653;79;21379;-66
2021/04/22 02:13:17;;;;;;;13.45;9.35;;;;;;;6.81;75.95;100476.09;1772357;79;21199;-66
2021/04/22 02:15:49;;;;;;;12.55;9.15;;;;;;;6.78;75.95;100473.90;1780953;78;21116;-66
2021/04/22 02:18:17;;;;;;;;;;;;;;;6.74;75.98;100474.05;1781515;79;21726;-66
2021/04/22 02:20:46;;;;;;;13.05;9.63;;;;;;;6.71;75.98;100476.38;1776630;79;20227;-67
2021/04/22 02:23:17;;;;;;;12.23;9.60;;;;;;;6.65;76.02;100480.78;1758612;79;22292;-68
2021/04/22 02:25:47;;;;;;;12.88;10.03;;;;;;;6.62;76.11;100482.58;1778682;78;21081;-67
2021/04/22 02:28:16;;;;;;;13.50;10.28;;;;;;;6.60;76.23;100481.98;1781429;78;21041;-66
2021/04/22 02:30:44;;;;;;;12.70;10.10;;;;;;;6.60;76.31;100481.98;1756738;79;21143;-66
2021/04/22 02:33:14;;;;;;;11.63;9.70;;;;;;;6.61;76.41;100482.27;1744517;79;21191;-67
2021/04/22 02:35:44;;;;;;;11.93;9.68;;;;;;;6.64;76.51;100483.13;1770991;79;21307;-65
2021/04/22 02:38:13;;;;;;;11.68;9.50;;;;;;;6.67;76.60;100477.36;1756978;79;21540;-67
2021/04/22 02:40:42;;;;;;;10.88;9.35;;;;;;;6.70;76.63;100476.89;1761984;79;21156;-67
2021/04/22 02:43:13;;;;;;;11.78;8.95;;;;;;;6.75;76.65;100485.51;1765244;79;21611;-66
2021/04/22 02:45:44;;;;;;;12.90;9.55;;;;;;;6.76;76.63;100481.28;1773774;79;21076;-66
2021/04/22 02:48:12;;;;;;;12.53;9.75;;;;;;;6.78;76.62;100480.53;1776457;79;21179;-66
2021/04/22 02:50:45;;;;;;;11.63;9.05;;;;;;;6.80;76.63;100477.63;1751256;79;21101;-65
2021/04/22 02:53:14;;;;;;;12.58;9.68;;;;;;;6.79;76.58;100479.48;1763559;80;21113;-66
2021/04/22 02:55:44;;;;;;;11.45;8.63;;;;;;;6.79;76.56;100475.50;1761276;79;21203;-67
2021/04/22 02:58:15;;;;;;;10.78;8.83;;;;;;;6.79;76.55;100480.02;1752751;79;21186;-67
2021/04/22 03:00:44;;;;;;;11.73;8.80;;;;;;;6.77;76.56;100477.57;1768999;79;21327;-67
2021/04/22 03:03:12;;;;;;;10.13;8.70;;;;;;;6.76;76.59;100479.95;1753070;80;21164;-67
2021/04/22 03:05:42;;;;;;;12.82;9.35;;;;;;;6.72;76.62;100485.97;1774804;78;21064;-65
2021/04/22 03:08:10;;;;;;;12.05;9.80;;;;;;;6.68;76.69;100485.63;1751678;79;21199;-68
2021/04/22 03:10:38;;;;;;;13.45;9.53;;;;;;;6.66;76.73;100487.70;1777919;78;21551;-67
2021/04/22 03:13:06;;;;;;;13.60;9.80;;;;;;;6.62;76.75;100491.86;1769990;79;21705;-67
2021/04/22 03:15:34;;;;;;;11.18;8.90;;;;;;;6.58;76.78;100501.30;1768957;79;21592;-66
2021/04/22 03:18:03;;;;;;;13.18;9.83;;;;;;;6.57;76.85;100500.50;1777700;79;21040;-66
2021/04/22 03:20:31;;;;;;;12.40;9.45;;;;;;;6.57;76.93;100498.37;1770756;79;21175;-68
2021/04/22 03:22:59;;;;;;;12.45;9.40;;;;;;;6.58;76.98;100503.95;1757901;79;21188;-66
2021/04/22 03:25:27;;;;;;;12.68;9.63;;;;;;;6.57;77.03;100508.98;1740805;79;21673;-66
2021/04/22 03:27:55;;;;;;;13.95;9.93;;;;;;;6.59;77.06;100516.21;1756012;79;21160;-66
2021/04/22 03:30:26;;;;;;;13.03;9.58;;;;;;;6.62;77.05;100522.38;1769153;79;21184;-66
2021/04/22 03:32:54;;;;;;;12.80;10.08;;;;;;;6.63;77.05;100525.31;1759659;79;21069;-66
2021/04/22 03:35:22;;;;;;;13.70;9.80;;;;;;;6.62;77.05;100527.69;1764346;79;21265;-67
2021/04/22 03:37:50;;;;;;;11.50;9.50;;;;;;;6.62;77.06;100529.55;1789152;78;21192;-66
2021/04/22 03:40:19;;;;;;;11.83;9.40;;;;;;;6.62;77.06;100527.69;1783013;78;21667;-67
2021/04/22 03:42:47;;;;;;;12.82;9.90;;;;;;;6.61;77.03;100531.36;1775749;78;21100;-67
2021/04/22 03:45:15;;;;;;;12.73;9.53;;;;;;;6.60;77.06;100528.95;1768703;78;21223;-66
2021/04/22 03:47:44;;;;;;;12.37;9.88;;;;;;;6.60;77.08;100544.36;1775806;78;21188;-66
2021/04/22 03:50:14;;;;;;;13.53;10.05;;;;;;;6.60;77.10;100540.38;1782114;80;22162;-66
2021/04/22 03:52:42;;;;;;;12.68;9.90;;;;;;;6.62;77.14;100548.92;1774910;78;21123;-66
2021/04/22 03:55:13;;;;;;;12.68;10.58;;;;;;;6.63;77.19;100545.22;1770124;78;21459;-66
2021/04/22 03:57:41;;;;;;;11.03;9.13;;;;;;;6.68;77.25;100539.20;1781972;78;21176;-66
2021/04/22 04:00:12;;;;;;;13.03;10.03;;;;;;;6.73;77.29;100542.80;1781170;79;21574;-67
2021/04/22 04:02:40;;;;;;;11.65;10.15;;;;;;;6.76;77.36;100547.64;1759253;80;21425;-66
2021/04/22 04:05:09;;;;;;;12.37;10.15;;;;;;;6.84;77.49;100551.78;1761721;78;21502;-67
2021/04/22 04:07:37;;;;;;;14.13;10.68;;;;;;;6.91;77.55;100551.16;1788215;78;21230;-65
2021/04/22 04:10:10;;;;;;;16.75;10.70;;;;;;;7.01;77.62;100553.23;1781339;80;21206;-67
2021/04/22 04:12:38;;;;;;;14.18;10.68;;;;;;;7.13;77.69;100552.67;1788404;78;21174;-66
2021/04/22 04:15:07;;;;;;;13.85;10.80;;;;;;;7.24;77.66;100557.17;1776515;78;22536;-67
2021/04/22 04:17:35;;;;;;;13.70;10.82;;;;;;;7.36;77.55;100558.45;1796651;78;21199;-68
2021/04/22 04:20:07;;;;;;;13.05;11.20;;;;;;;7.48;77.42;100555.25;1781648;79;21107;-66
2021/04/22 04:22:35;;;;;;;12.10;10.72;;;;;;;7.63;77.26;100565.35;1789275;78;21115;-67
2021/04/22 04:25:05;;;;;;;13.20;10.78;;;;;;;7.77;77.02;100559.78;1768858;78;21231;-66
2021/04/22 04:27:33;;;;;;;14.75;10.82;;;;;;;7.90;76.75;100556.83;1781217;78;22525;-66
2021/04/22 04:30:00;;;;;;;14.60;10.50;;;;;;;8.03;76.49;100563.17;1779775;79;21203;-67
2021/04/22 04:32:30;;;;;;;12.40;10.35;;;;;;;8.19;76.14;100567.71;1790444;78;21119;-66
2021/04/22 04:34:58;;;;;;;12.00;10.10;;;;;;;8.35;75.63;100567.94;1778912;78;21201;-67
2021/04/22 04:37:25;;;;;;;15.83;10.63;;;;;;;8.53;75.24;100566.41;1782018;78;21113;-67
2021/04/22 04:39:53;;;;;;;13.62;11.05;;;;;;;8.73;74.86;100571.77;1761367;79;21188;-68
2021/04/22 04:42:21;;;;;;;12.05;10.05;;;;;;;8.92;74.32;100571.25;1755366;78;21565;-67
2021/04/22 04:44:49;;;;;;;11.80;9.73;;;;;;;9.10;73.45;100566.67;1782982;78;21143;-67
2021/04/22 04:47:17;;;;;;;12.00;10.05;;;;;;;9.19;72.57;100573.72;1781637;78;21662;-66
2021/04/22 04:49:47;;;;;;;12.60;10.15;;;;;;;9.28;72.03;100573.55;1777329;78;21263;-67
2021/04/22 04:52:15;;;;;;;12.65;10.63;;;;;;;9.37;71.60;100572.87;1789142;80;21408;-67
2021/04/22 04:54:43;;;;;;;12.80;10.13;;;;;;;9.47;71.10;100576.72;1778927;78;21072;-66
2021/04/22 04:57:11;;;;;;;12.00;10.03;;;;;;;9.51;70.62;100579.98;1754478;78;21206;-66
2021/04/22 04:59:39;;;;;;;12.23;9.95;;;;;;;9.58;70.28;100579.27;1795853;78;21128;-66
2021/04/22 05:02:07;;;;;;;12.45;9.90;;;;;;;9.66;69.97;100575.34;1780034;80;21067;-67
2021/04/22 05:04:35;;;;;;;12.40;10.00;;;;;;;9.82;69.74;100572.31;1774852;78;21320;-67
2021/04/22 05:07:03;;;;;;;11.20;9.23;;;;;;;9.99;69.48;100571.67;1757360;78;21160;-67
2021/04/22 05:09:31;;;;;;;11.75;10.03;;;;;;;10.20;69.04;100579.86;1783353;78;21622;-66
2021/04/22 05:11:59;;;;;;;12.70;9.95;;;;;;;10.34;68.12;100583.77;1775921;78;21159;-67
2021/04/22 05:14:27;;;;;;;12.30;9.53;;;;;;;10.43;67.65;100591.59;1764828;79;21634;-67
2021/04/22 05:16:55;;;;;;;11.55;9.10;;;;;;;10.51;67.18;100589.78;1777857;78;21711;-66
2021/04/22 05:19:22;;;;;;;12.78;9.68;;;;;;;10.61;66.47;100586.91;1790480;78;21186;-65
2021/04/22 05:21:50;;;;;;;9.93;8.23;;;;;;;10.68;66.21;100589.63;1769458;78;21091;-67
2021/04/22 05:24:18;;;;;;;10.10;8.98;;;;;;;10.78;65.81;100585.69;1772662;79;21190;-66
2021/04/22 05:26:47;;;;;;;11.47;9.40;;;;;;;10.87;65.41;100589.23;1773782;78;21172;-67
2021/04/22 05:29:15;;;;;;;11.83;8.95;;;;;;;10.94;65.27;100582.59;1790835;78;21766;-67
2021/04/22 05:31:43;;;;;;;11.18;8.88;;;;;;;11.02;64.54;100584.78;1779207;78;21339;-66
2021/04/22 05:34:12;;;;;;;11.50;8.93;;;;;;;11.07;64.66;100582.66;1768448;78;21180;-68
2021/04/22 05:36:39;;;;;;;11.33;9.20;;;;;;;11.20;64.64;100581.39;1770900;78;21385;-66
2021/04/22 05:50:51;;;;;;;10.87;9.20;;;;;;;12.48;61.09;100585.72;1836804;75;22789;-67
2021/04/22 05:53:30;;;;;;;9.93;8.00;;;;;;;12.56;60.11;100580.61;1824887;76;22542;-70
2021/04/22 05:55:58;;;;;;;9.23;8.20;;;;;;;12.52;59.09;100581.42;1813521;77;21673;-69
2021/04/22 05:58:27;;;;;;;11.57;8.57;;;;;;;12.38;59.01;100582.51;1786564;78;21248;-69
2021/04/22 06:00:55;;;;;;;8.63;7.50;;;;;;;12.33;59.34;100584.63;1782252;80;21478;-70
2021/04/22 06:03:22;;;;;;;10.53;8.60;;;;;;;12.36;58.62;100586.78;1790640;78;21416;-71
2021/04/22 06:05:50;;;;;;;9.00;8.07;;;;;;;12.33;58.75;100583.83;1786451;79;21371;-70
2021/04/22 06:08:18;;;;;;;9.03;7.33;;;;;;;12.28;58.03;100581.17;1790832;78;21489;-70
2021/04/22 06:10:46;;;;;;;8.90;7.67;;;;;;;12.24;57.95;100580.91;1788673;78;22299;-68
2021/04/22 06:13:15;;;;;;;9.43;7.97;;;;;;;12.31;58.32;100578.76;1786617;78;21418;-69
2021/04/22 06:15:43;;;;;;;9.47;7.73;;;;;;;12.47;58.07;100579.56;1778051;78;21399;-70
2021/04/22 06:18:11;;;;;;;9.13;7.80;;;;;;;12.64;58.22;100575.27;1789085;78;21833;-69
2021/04/22 06:20:40;;;;;;;9.03;7.57;;;;;;;12.80;57.70;100578.19;1793277;78;21792;-72
2021/04/22 06:23:09;;;;;;;8.90;7.47;;;;;;;12.87;56.93;100579.24;1792451;78;21391;-71
2021/04/22 06:25:38;;;;;;;9.17;7.53;;;;;;;12.90;56.44;100579.50;1793378;78;21464;-72
2021/04/22 06:28:06;;;;;;;11.97;8.70;;;;;;;12.89;56.81;100570.38;1790199;78;21249;-71
2021/04/22 06:30:34;;;;;;;8.17;7.03;;;;;;;12.98;57.13;100574.66;1786089;78;21424;-71
2021/04/22 06:33:03;;;;;;;8.80;7.07;;;;;;;13.11;56.86;100577.56;1785753;78;21798;-71
2021/04/22 06:35:32;;;;;;;8.20;7.33;;;;;;;13.32;56.95;100578.31;1790509;77;22775;-72
2021/04/22 06:38:00;;;;;;;8.57;7.03;;;;;;;13.74;55.77;100585.09;1799922;78;21589;-71
2021/04/22 06:40:28;;;;;;;8.83;7.87;;;;;;;13.74;55.77;100585.09;1789877;78;22186;-71
2021/04/22 06:42:57;;;;;;;8.87;6.50;;;;;;;14.07;55.71;100584.09;1783902;78;21548;-70
2021/04/22 06:45:26;;;;;;;7.87;6.77;;;;;;;14.07;55.71;100584.09;1792284;78;21573;-71
2021/04/22 06:47:54;;;;;;;8.70;6.93;;;;;;;14.30;55.20;100578.00;1795180;78;21688;-71
2021/04/22 06:50:24;;;;;;;8.27;7.00;;;;;;;14.62;53.86;100581.27;1792259;78;21876;-71
2021/04/22 06:52:53;;;;;;;8.07;6.17;;;;;;;14.62;53.86;100581.27;1782867;78;21619;-72
2021/04/22 06:55:22;;;;;;;9.30;7.17;;;;;;;14.98;52.59;100570.95;1800837;78;22310;-73
2021/04/22 06:57:52;;;;;;;8.80;6.62;;;;;;;14.98;52.59;100570.95;1780368;78;22241;-72
2021/04/22 07:00:22;;;;;;;7.20;6.13;;;;;;;15.18;52.28;100576.66;1774714;78;22361;-71
2021/04/22 07:02:49;;;;;;;8.43;5.97;;;;;;;15.36;51.93;100573.73;1784699;78;21902;-70
2021/04/22 07:05:18;;;;;;;8.10;5.67;;;;;;;15.53;51.87;100575.94;1789810;78;21756;-70
2021/04/22 07:07:46;;;;;;;7.33;5.53;;;;;;;15.70;51.18;100577.09;1781512;78;21905;-72
2021/04/22 07:10:15;;;;;;;7.77;5.93;;;;;;;15.83;50.57;100567.48;1784655;78;21267;-73
2021/04/22 07:12:45;;;;;;;6.40;5.70;;;;;;;15.97;50.34;100570.24;1735538;81;21867;-71
2021/04/22 07:15:15;;;;;;;8.00;6.50;;;;;;;16.12;50.08;100569.19;1732734;81;21946;-73
2021/04/22 07:17:46;;;;;;;8.97;5.97;;;;;;;16.18;49.09;100568.81;1741690;81;21860;-71
2021/04/22 07:20:19;;;;;;;7.57;5.80;;;;;;;16.22;47.73;100569.58;1712325;81;21119;-72
2021/04/22 07:22:49;;;;;;;6.57;5.10;;;;;;;16.13;48.46;100570.81;1713663;81;21213;-72
2021/04/22 07:25:20;;;;;;;8.00;6.00;;;;;;;16.18;48.67;100568.81;1746349;80;21218;-72
2021/04/22 07:27:48;;;;;;;7.67;6.43;;;;;;;16.26;48.03;100567.92;1723406;81;21663;-70
2021/04/22 07:30:19;;;;;;;7.33;5.63;;;;;;;16.32;47.71;100566.72;1747689;80;21203;-72
2021/04/22 07:32:47;;;;;;;6.70;5.53;;;;;;;16.41;47.45;100567.65;1744123;80;22506;-72
2021/04/22 07:35:15;;;;;;;7.03;5.67;;;;;;;16.46;47.11;100571.63;1737361;81;21609;-70
2021/04/22 07:37:45;;;;;;;6.10;5.30;;;;;;;16.50;46.57;100565.87;1747962;80;22027;-72
2021/04/22 07:40:19;;;;;;;6.50;4.97;;;;;;;16.57;46.17;100573.03;1741605;81;21219;-71
2021/04/22 07:42:47;;;;;;;6.27;5.23;;;;;;;16.52;45.84;100566.39;1725326;81;21632;-70
2021/04/22 07:45:34;;;;;;;6.27;4.50;;;;;;;16.51;45.68;100567.47;1731343;81;21276;-71
2021/04/22 07:48:04;;;;;;;5.20;4.67;;;;;;;16.54;45.41;100564.73;1732917;81;21226;-72
2021/04/22 07:50:33;;;;;;;5.80;4.60;;;;;;;16.61;44.71;100566.49;1726382;81;21214;-70
2021/04/22 07:53:05;;;;;;;5.20;3.87;;;;;;;16.63;44.13;100565.11;1731488;81;21252;-72
2021/04/22 07:55:33;;;;;;;5.17;3.77;;;;;;;16.59;44.63;100566.80;1747155;80;21508;-70
2021/04/22 07:58:02;;;;;;;5.23;3.80;;;;;;;16.65;44.30;100560.23;1721961;81;21244;-75
2021/04/22 08:00:31;;;;;;;5.60;4.10;;;;;;;16.77;44.06;100554.36;1725070;81;21276;-71
2021/04/22 08:03:01;;;;;;;5.57;4.13;;;;;;;16.87;42.77;100557.42;1745437;80;21365;-70
2021/04/22 08:05:35;;;;;;;5.87;3.90;;;;;;;16.93;42.31;100550.04;1731838;81;21183;-71
2021/04/22 08:08:07;;;;;;;4.93;3.90;;;;;;;16.95;41.42;100558.09;1721855;81;21650;-69
2021/04/22 08:10:38;;;;;;;5.13;4.00;;;;;;;16.97;42.78;100551.03;1707238;83;21219;-73
2021/04/22 08:13:07;;;;;;;6.65;4.08;;;;;;;17.05;42.20;100557.89;1745207;80;21189;-73
2021/04/22 08:15:37;;;;;;;6.33;4.10;;;;;;;17.13;42.46;100553.68;1741715;80;21683;-72
2021/04/22 08:18:06;;;;;;;5.00;3.77;;;;;;;17.22;40.74;100552.44;1745454;81;21224;-70
2021/04/22 08:20:34;;;;;;;5.37;3.80;;;;;;;17.23;41.50;100547.27;1734284;81;21144;-71
2021/04/22 08:23:05;;;;;;;4.90;3.73;;;;;;;17.31;41.17;100558.73;1743508;80;22219;-70
2021/04/22 08:25:43;;;;;;;4.67;3.60;;;;;;;17.38;40.87;100548.31;1727673;81;21623;-71
2021/04/22 08:28:13;;;;;;;5.13;3.90;;;;;;;17.48;40.30;100549.45;1731248;81;22176;-71
2021/04/22 08:31:00;;;;;;;4.70;3.30;;;;;;;17.47;40.01;100550.55;1728398;81;21171;-76
2021/04/22 08:33:30;;;;;;;6.07;3.77;;;;;;;17.49;40.22;100549.69;1744185;80;21602;-71
2021/04/22 08:35:58;;;;;;;6.30;4.67;;;;;;;17.55;40.42;100555.23;1759822;80;21197;-72
2021/04/22 08:38:27;;;;;;;7.70;4.10;;;;;;;17.61;40.13;100549.72;1758656;80;21647;-72
2021/04/22 08:40:55;;;;;;;5.47;3.80;;;;;;;17.70;40.39;100553.28;1755565;80;21206;-70
2021/04/22 08:43:23;;;;;;;5.23;3.37;;;;;;;17.86;39.68;100545.66;1722771;81;22410;-71
2021/04/22 08:45:52;;;;;;;6.03;4.27;;;;;;;17.98;40.09;100550.77;1725518;81;21218;-73
2021/04/22 08:48:21;;;;;;;6.80;4.33;;;;;;;18.05;38.99;100554.40;1720573;83;21737;-73
2021/04/22 08:50:51;;;;;;;5.50;4.00;;;;;;;17.91;38.07;100550.95;1749629;80;21208;-71
2021/04/22 08:53:25;;;;;;;6.03;4.37;;;;;;;17.62;38.73;100540.52;1729593;81;22100;-71
2021/04/22 08:55:53;;;;;;;7.27;4.30;;;;;;;17.37;39.51;100541.30;1751648;80;21211;-72
2021/04/22 08:58:21;;;;;;;6.60;4.53;;;;;;;17.17;40.38;100554.67;1750337;80;21172;-78
2021/04/22 09:00:52;;;;;;;5.90;4.57;;;;;;;17.02;41.32;100553.09;1748819;80;21164;-79
2021/04/22 09:03:20;;;;;;;6.23;4.83;;;;;;;16.99;41.47;100551.55;1747822;80;21179;-77
2021/04/22 09:05:48;;;;;;;7.00;4.83;;;;;;;17.08;41.96;100546.50;1731009;81;21419;-76
2021/04/22 09:08:18;;;;;;;5.73;4.70;;;;;;;17.33;41.53;100548.41;1728332;81;21191;-78
2021/04/22 09:10:46;;;;;;;5.83;4.50;;;;;;;17.56;39.55;100545.22;1737272;81;21121;-76
2021/04/22 09:13:17;;;;;;;8.07;4.80;;;;;;;17.67;39.40;100540.38;1766644;80;21211;-80
2021/04/22 09:15:46;;;;;;;6.13;4.90;;;;;;;17.73;39.51;100540.52;1733661;81;21788;-77
2021/04/22 09:18:18;;;;;;;8.33;4.80;;;;;;;17.86;38.74;100544.31;1744348;80;21228;-77
2021/04/22 09:20:49;;;;;;;7.17;4.10;;;;;;;18.01;38.68;100535.30;1753350;80;21217;-77
2021/04/22 09:23:28;;;;;;;;;;;;;;;18.19;38.77;100535.41;1754790;80;21215;-75
2021/04/22 09:26:03;;;;;;;7.10;5.10;;;;;;;18.42;38.21;100531.56;1704166;82;20302;-77
2021/04/22 09:28:38;;;;;;;5.60;4.20;;;;;;;18.53;37.41;100526.70;1701857;82;21171;-77
2021/04/22 09:31:07;;;;;;;7.23;4.40;;;;;;;18.58;38.43;100536.02;1744527;81;21195;-76
2021/04/22 09:33:37;;;;;;;6.63;4.23;;;;;;;18.78;38.03;100532.00;1741889;81;21199;-77
2021/04/22 09:36:12;;;;;;;6.93;5.13;;;;;;;18.81;37.55;100522.47;1729638;81;21226;-77
2021/04/22 09:38:40;;;;;;;5.73;4.13;;;;;;;18.59;37.63;100529.53;1732124;81;21147;-76
2021/04/22 09:41:19;;;;;;;7.05;5.20;;;;;;;18.39;38.53;100532.18;1727768;81;21169;-77
2021/04/22 09:44:19;;;;;;;5.87;4.63;;;;;;;18.43;38.52;100525.63;1804985;78;22846;-66
2021/04/22 09:47:10;;;;;;;6.57;4.80;;;;;;;18.42;38.24;100529.42;1803809;78;21156;-67
2021/04/22 09:49:56;;;;;;;6.30;4.30;;;;;;;18.47;38.15;100521.19;1807326;77;21184;-66
2021/04/22 09:52:22;;;;;;;6.07;4.23;;;;;;;18.43;37.42;100531.83;1784426;79;21212;-67
2021/04/22 09:54:53;;;;;;;7.57;5.13;;;;;;;18.27;37.62;100527.92;1777772;78;21219;-65
2021/04/22 09:57:29;;;;;;;7.77;5.73;;;;;;;18.12;38.88;100527.73;1785941;80;21159;-66
2021/04/22 09:59:57;;;;;;;6.37;4.70;;;;;;;17.98;39.12;100526.45;1785030;79;21156;-66
2021/04/22 10:02:25;;;;;;;7.30;4.70;;;;;;;17.93;39.15;100514.95;1767380;80;22448;-68
2021/04/22 10:04:55;;;;;;;8.27;5.47;;;;;;;17.95;39.41;100525.70;1782851;78;21654;-66
2021/04/22 10:07:27;;;;;;;6.60;5.03;;;;;;;18.01;39.07;100519.08;1767109;80;21208;-66
2021/04/22 10:10:01;;;;;;;6.27;4.73;;;;;;;18.03;38.10;100518.23;1788953;79;21136;-68
2021/04/22 10:12:32;;;;;;;5.90;4.17;;;;;;;18.04;39.11;100514.97;1787148;79;21180;-68
2021/04/22 10:15:21;;;;;;;5.03;4.30;;;;;;;18.14;38.56;100501.76;1769713;80;21298;-66
2021/04/22 10:17:55;;;;;;;5.90;3.87;;;;;;;18.15;38.81;100501.99;1775779;79;21627;-66
2021/04/22 10:20:29;;;;;;;5.83;4.10;;;;;;;18.21;38.79;100504.26;1770888;79;21291;-69
2021/04/22 10:23:11;;;;;;;5.60;4.23;;;;;;;18.34;38.17;100497.17;1809100;75;22737;-68
2021/04/22 10:25:42;;;;;;;5.27;3.83;;;;;;;18.37;37.96;100491.70;1718587;81;21147;-67
2021/04/22 10:28:15;;;;;;;4.83;3.83;;;;;;;18.40;37.77;100489.18;1749790;81;21451;-67
2021/04/22 10:30:47;;;;;;;5.53;4.00;;;;;;;18.49;36.95;100501.37;1733903;81;21192;-67
2021/04/22 10:33:15;;;;;;;5.12;3.60;;;;;;;18.56;36.92;100490.92;1714338;81;21199;-66
2021/04/22 10:35:45;;;;;;;6.27;4.00;;;;;;;18.60;37.09;100495.16;1725061;82;21606;-67
2021/04/22 10:38:13;;;;;;;7.03;4.20;;;;;;;18.63;37.32;100490.47;1718375;81;21196;-67
2021/04/22 10:40:48;;;;;;;4.97;3.20;;;;;;;18.69;37.04;100493.25;1722821;83;21396;-67
2021/04/22 10:43:20;;;;;;;4.30;3.20;;;;;;;18.78;35.23;100500.89;1727950;81;21216;-67
2021/04/22 10:45:48;;;;;;;;;;;;;;;18.92;34.82;100484.00;1726116;81;21153;-67
2021/04/22 10:48:15;;;;;;;6.40;4.13;;;;;;;19.02;34.67;100491.02;1706839;81;21079;-65
2021/04/22 10:50:47;;;;;;;6.00;3.50;;;;;;;19.05;34.98;100487.69;1723271;81;21697;-67
2021/04/22 10:53:20;;;;;;;5.00;3.50;;;;;;;19.08;34.84;100491.09;1720328;81;21367;-67
2021/04/22 10:55:51;;;;;;;5.60;3.73;;;;;;;19.05;32.64;100504.46;1719504;81;21277;-68
2021/04/22 10:58:27;;;;;;;4.15;2.90;;;;;;;18.88;34.07;100510.07;1727168;81;21147;-66
2021/04/22 11:01:08;;;;;;;3.90;2.60;;;;;;;18.94;34.27;100501.26;1715818;82;21656;-67
2021/04/22 11:03:40;;;;;;;4.30;3.30;;;;;;;19.21;34.94;100502.91;1720017;81;21663;-67
2021/04/22 11:06:17;;;;;;;4.03;3.17;;;;;;;19.49;32.47;100482.32;1713369;82;22387;-68
2021/04/22 11:08:49;;;;;;;4.70;3.03;;;;;;;19.38;33.20;100487.23;1717059;81;21204;-67
2021/04/22 11:11:28;;;;;;;3.83;2.80;;;;;;;19.24;33.53;100484.67;1727367;81;21646;-66
2021/04/22 11:14:12;;;;;;;4.20;2.80;;;;;;;19.22;33.95;100482.86;1727208;81;21730;-67
2021/04/22 11:16:51;;;;;;;5.00;3.00;;;;;;;19.31;33.97;100480.94;1718175;81;21663;-67
2021/04/22 11:19:41;;;;;;;4.10;3.10;;;;;;;19.47;34.26;100477.20;1720132;81;21347;-67
2021/04/22 11:22:16;;;;;;;4.00;3.00;;;;;;;19.66;34.39;100472.86;1712085;82;21706;-67
2021/04/22 11:24:56;;;;;;;4.57;2.97;;;;;;;19.84;33.18;100465.49;1711378;82;21182;-68
2021/04/22 11:27:26;;;;;;;5.78;4.00;;;;;;;19.76;33.78;100460.33;1707803;81;21223;-67
2021/04/22 11:29:57;;;;;;;6.60;3.90;;;;;;;19.76;34.27;100458.98;1712675;82;21180;-67
2021/04/22 11:32:33;;;;;;;5.22;3.50;;;;;;;19.70;34.47;100445.35;1707956;83;21223;-66
2021/04/22 11:35:15;;;;;;;5.00;3.37;;;;;;;19.66;34.60;100444.41;1703000;82;21630;-68
2021/04/22 11:37:56;;;;;;;4.63;3.20;;;;;;;19.69;34.68;100439.70;1769647;80;21588;-67
2021/04/22 11:40:29;;;;;;;5.20;3.47;;;;;;;19.86;34.14;100441.02;1759169;79;21220;-68
2021/04/22 11:42:57;;;;;;;4.60;3.10;;;;;;;20.02;33.08;100437.81;1765899;79;21208;-67
2021/04/22 11:45:29;;;;;;;4.57;3.37;;;;;;;20.11;33.46;100436.66;1770331;80;22353;-66
2021/04/22 11:48:02;;;;;;;4.67;3.33;;;;;;;20.27;33.75;100433.41;1764412;79;28471;-68
2021/04/22 11:50:45;;;;;;;4.17;3.30;;;;;;;20.47;32.75;100427.84;1761614;80;21256;-67